createdAt,value
2022-08-27T00:01:27.660Z,72.85
2022-08-27T00:03:55.421Z,72.92
2022-08-27T00:06:23.909Z,72.70
2022-08-27T00:08:51.498Z,72.27
2022-08-27T00:11:20.449Z,72.32
2022-08-27T00:13:47.404Z,72.18
2022-08-27T00:16:16.749Z,72.11
2022-08-27T00:18:48.205Z,72.49
2022-08-27T00:21:15.496Z,72.35
2022-08-27T00:23:42.028Z,72.23
2022-08-27T00:26:08.969Z,72.42
2022-08-27T00:28:36.019Z,72.11
2022-08-27T00:31:02.730Z,71.63
2022-08-27T00:33:30.523Z,72.09
2022-08-27T00:35:57.466Z,72.21
2022-08-27T00:38:24.411Z,71.94
2022-08-27T00:40:52.420Z,72.52
2022-08-27T00:43:29.476Z,72.20
2022-08-27T00:46:03.003Z,72.28
2022-08-27T00:48:33.193Z,72.26
2022-08-27T00:50:59.979Z,71.91
2022-08-27T00:53:33.094Z,72.22
2022-08-27T00:56:10.927Z,72.06
2022-08-27T00:58:44.185Z,72.43
2022-08-27T01:01:14.806Z,72.69
2022-08-27T01:03:46.421Z,72.80
2022-08-27T01:06:16.136Z,72.40
2022-08-27T01:08:50.826Z,72.61
2022-08-27T01:11:18.701Z,72.83
2022-08-27T01:14:00.102Z,73.21
2022-08-27T01:16:35.723Z,73.05
2022-08-27T01:19:06.119Z,72.69
2022-08-27T01:21:44.079Z,73.00
2022-08-27T01:24:36.953Z,73.04
2022-08-27T01:27:13.450Z,73.07
2022-08-27T01:29:41.253Z,73.58
2022-08-27T01:32:14.551Z,73.33
2022-08-27T01:34:41.026Z,73.22
2022-08-27T01:37:08.518Z,73.05
2022-08-27T01:39:36.783Z,73.24
2022-08-27T01:42:07.448Z,73.06
2022-08-27T01:44:50.710Z,72.92
2022-08-27T01:47:18.972Z,72.84
2022-08-27T01:49:45.561Z,72.75
2022-08-27T01:52:13.386Z,72.68
2022-08-27T01:54:40.227Z,73.03
2022-08-27T01:57:06.793Z,73.20
2022-08-27T01:59:39.612Z,73.56
2022-08-27T02:02:08.055Z,73.16
2022-08-27T02:04:34.673Z,73.71
2022-08-27T02:07:01.114Z,73.55
2022-08-27T02:09:27.628Z,73.46
2022-08-27T02:11:54.175Z,73.73
2022-08-27T02:14:20.585Z,73.57
2022-08-27T02:16:52.668Z,73.74
2022-08-27T02:19:20.350Z,73.28
2022-08-27T02:21:47.180Z,73.51
2022-08-27T02:24:14.008Z,74.00
2022-08-27T02:26:40.452Z,74.04
2022-08-27T02:29:07.808Z,74.20
2022-08-27T02:31:34.464Z,73.70
2022-08-27T02:34:01.482Z,73.56
2022-08-27T02:36:28.239Z,73.62
2022-08-27T02:38:55.396Z,73.82
2022-08-27T02:41:23.117Z,74.16
2022-08-27T02:43:49.504Z,74.11
2022-08-27T02:46:16.876Z,74.40
2022-08-27T02:48:44.826Z,74.07
2022-08-27T02:51:11.466Z,74.15
2022-08-27T02:53:38.663Z,73.73
2022-08-27T02:56:06.989Z,74.13
2022-08-27T02:58:33.706Z,74.17
2022-08-27T03:01:01.800Z,74.68
2022-08-27T03:03:29.698Z,74.89
2022-08-27T03:05:57.941Z,74.60
2022-08-27T03:08:27.470Z,75.11
2022-08-27T03:10:57.278Z,74.74
2022-08-27T03:13:25.835Z,74.78
2022-08-27T03:15:53.274Z,74.56
2022-08-27T03:18:21.452Z,74.59
2022-08-27T03:20:53.638Z,74.55
2022-08-27T03:23:26.225Z,73.95
2022-08-27T03:25:56.187Z,74.41
2022-08-27T03:28:26.339Z,74.17
2022-08-27T03:31:01.345Z,74.05
2022-08-27T03:33:38.416Z,74.06
2022-08-27T03:36:06.245Z,73.74
2022-08-27T03:38:32.931Z,74.07
2022-08-27T03:40:59.476Z,73.60
2022-08-27T03:43:26.053Z,74.18
2022-08-27T03:46:00.885Z,74.72
2022-08-27T03:48:29.509Z,74.69
2022-08-27T03:50:56.005Z,74.69
2022-08-27T03:53:22.476Z,74.56
2022-08-27T03:55:49.008Z,74.42
2022-08-27T03:58:16.817Z,74.32
2022-08-27T04:00:43.255Z,74.25
2022-08-27T04:03:13.476Z,74.35
2022-08-27T04:05:40.748Z,74.36
2022-08-27T04:08:09.655Z,74.17
2022-08-27T04:10:40.458Z,74.38
2022-08-27T04:13:06.908Z,74.35
2022-08-27T04:15:33.576Z,74.14
2022-08-27T04:18:00.200Z,74.47
2022-08-27T04:20:35.779Z,73.98
2022-08-27T04:23:03.623Z,74.30
2022-08-27T04:25:30.055Z,74.00
2022-08-27T04:27:56.767Z,73.91
2022-08-27T04:30:23.305Z,73.99
2022-08-27T04:32:50.522Z,73.82
2022-08-27T04:35:17.531Z,73.65
2022-08-27T04:37:44.649Z,73.58
2022-08-27T04:40:11.314Z,73.23
2022-08-27T04:42:37.931Z,73.24
2022-08-27T04:45:05.197Z,73.35
2022-08-27T04:47:31.644Z,73.28
2022-08-27T04:49:58.270Z,73.69
2022-08-27T04:52:25.418Z,74.08
2022-08-27T04:54:52.073Z,74.22
2022-08-27T04:57:18.737Z,73.42
2022-08-27T04:59:45.540Z,73.60
2022-08-27T05:02:11.946Z,73.50
2022-08-27T05:04:40.166Z,73.46
2022-08-27T05:07:08.594Z,73.81
2022-08-27T05:09:35.239Z,73.95
2022-08-27T05:12:01.799Z,74.08
2022-08-27T05:14:32.662Z,74.03
2022-08-27T05:17:00.044Z,74.00
2022-08-27T05:19:27.967Z,73.57
2022-08-27T05:21:54.802Z,73.43
2022-08-27T05:24:22.300Z,73.22
2022-08-27T05:26:49.934Z,73.40
2022-08-27T05:29:16.951Z,73.13
2022-08-27T05:31:48.418Z,73.44
2022-08-27T05:34:21.151Z,73.39
2022-08-27T05:36:53.047Z,73.24
2022-08-27T05:39:19.440Z,73.49
2022-08-27T05:41:47.113Z,73.50
2022-08-27T05:47:03.110Z,73.36
2022-08-27T05:49:29.545Z,73.27
2022-08-27T05:51:56.032Z,73.39
2022-08-27T05:54:23.520Z,73.43
2022-08-27T05:56:50.455Z,73.16
2022-08-27T05:59:36.037Z,73.41
2022-08-27T06:02:03.915Z,73.59
2022-08-27T06:04:30.585Z,73.07
2022-08-27T06:06:57.553Z,73.18
2022-08-27T06:09:26.863Z,73.10
2022-08-27T06:11:55.442Z,73.08
2022-08-27T06:14:22.839Z,72.66
2022-08-27T06:16:49.313Z,72.65
2022-08-27T06:19:16.704Z,72.63
2022-08-27T06:21:43.665Z,72.43
2022-08-27T06:24:14.498Z,72.00
2022-08-27T06:26:42.503Z,72.04
2022-08-27T06:29:09.898Z,71.68
2022-08-27T06:31:37.280Z,71.43
2022-08-27T06:34:07.602Z,71.31
2022-08-27T06:36:38.740Z,71.36
2022-08-27T06:39:06.520Z,71.68
2022-08-27T06:41:34.108Z,71.31
2022-08-27T06:44:03.609Z,70.82
2022-08-27T06:46:30.599Z,71.03
2022-08-27T06:49:00.211Z,70.68
2022-08-27T06:51:30.358Z,70.37
2022-08-27T06:53:59.035Z,69.87
2022-08-27T06:56:26.216Z,69.99
2022-08-27T06:58:55.367Z,69.71
2022-08-27T07:01:28.202Z,70.14
2022-08-27T07:03:59.021Z,69.85
2022-08-27T07:06:27.498Z,69.88
2022-08-27T07:08:54.451Z,69.93
2022-08-27T07:11:21.805Z,69.58
2022-08-27T07:13:48.987Z,69.34
2022-08-27T07:16:23.971Z,69.50
2022-08-27T07:18:53.414Z,69.19
2022-08-27T07:21:21.018Z,69.19
2022-08-27T07:23:50.000Z,68.79
2022-08-27T07:26:17.554Z,69.22
2022-08-27T07:28:44.580Z,69.55
2022-08-27T07:31:14.017Z,69.71
2022-08-27T07:33:45.397Z,69.73
2022-08-27T07:36:18.822Z,69.40
2022-08-27T07:38:45.325Z,69.38
2022-08-27T07:41:25.604Z,68.92
2022-08-27T07:44:16.099Z,68.94
2022-08-27T07:46:48.674Z,68.89
2022-08-27T07:49:17.164Z,68.63
2022-08-27T07:51:44.284Z,68.19
2022-08-27T07:54:10.993Z,68.63
2022-08-27T07:56:37.503Z,68.34
2022-08-27T07:59:03.930Z,69.03
2022-08-27T08:01:31.921Z,69.17
2022-08-27T08:03:58.444Z,68.90
2022-08-27T08:06:24.874Z,69.16
2022-08-27T08:08:51.413Z,69.08
2022-08-27T08:11:18.565Z,68.95
2022-08-27T08:13:46.221Z,69.01
2022-08-27T08:16:14.004Z,68.71
2022-08-27T08:18:41.082Z,68.52
2022-08-27T08:21:13.498Z,68.83
2022-08-27T08:23:41.372Z,68.36
2022-08-27T08:26:08.431Z,68.52
2022-08-27T08:28:35.267Z,68.88
2022-08-27T08:31:01.831Z,68.80
2022-08-27T08:33:29.656Z,68.30
2022-08-27T08:36:03.056Z,67.89
2022-08-27T08:38:29.612Z,68.23
2022-08-27T08:40:56.130Z,68.10
2022-08-27T08:43:36.762Z,68.17
2022-08-27T08:46:12.295Z,67.95
2022-08-27T08:48:43.505Z,67.43
2022-08-27T08:51:18.975Z,67.39
2022-08-27T08:53:57.859Z,67.68
2022-08-27T08:56:32.028Z,67.88
2022-08-27T08:59:24.627Z,67.85
2022-08-27T09:01:51.759Z,67.68
2022-08-27T09:04:18.303Z,67.45
2022-08-27T09:07:09.734Z,67.02
2022-08-27T09:09:46.706Z,67.01
2022-08-27T09:12:20.065Z,66.92
2022-08-27T09:14:52.068Z,66.84
2022-08-27T09:17:20.547Z,66.50
2022-08-27T09:19:46.987Z,66.79
2022-08-27T09:22:42.672Z,66.91
2022-08-27T09:25:23.322Z,66.82
2022-08-27T09:27:55.147Z,66.76
2022-08-27T09:30:30.329Z,66.99
2022-08-27T09:33:04.488Z,66.63
2022-08-27T09:35:46.007Z,66.54
2022-08-27T09:38:26.682Z,66.49
2022-08-27T09:40:53.355Z,66.27
2022-08-27T09:43:23.676Z,66.45
2022-08-27T09:45:54.627Z,66.57
2022-08-27T09:48:25.647Z,66.33
2022-08-27T09:50:55.015Z,65.80
2022-08-27T09:53:27.323Z,65.81
2022-08-27T09:55:58.807Z,65.75
2022-08-27T09:58:52.713Z,65.94
2022-08-27T10:01:24.802Z,65.93
2022-08-27T10:04:03.405Z,65.80
2022-08-27T10:06:31.712Z,65.79
2022-08-27T10:09:17.554Z,66.02
2022-08-27T10:11:50.976Z,65.74
2022-08-27T10:14:40.101Z,65.77
2022-08-27T10:17:22.944Z,65.46
2022-08-27T10:20:12.620Z,65.22
2022-08-27T10:22:55.818Z,64.83
2022-08-27T10:25:28.026Z,64.58
2022-08-27T10:28:08.746Z,64.51
2022-08-27T10:30:52.512Z,64.26
2022-08-27T10:33:33.811Z,64.04
2022-08-27T10:36:10.664Z,64.17
2022-08-27T10:38:43.844Z,63.15
2022-08-27T10:41:28.024Z,63.69
2022-08-27T10:44:13.361Z,63.91
2022-08-27T10:47:05.026Z,63.54
2022-08-27T10:49:44.867Z,63.67
2022-08-27T10:52:18.477Z,63.40
2022-08-27T10:55:28.193Z,63.41
2022-08-27T10:58:35.580Z,62.60
2022-08-27T11:01:20.171Z,62.62
2022-08-27T11:03:55.793Z,62.71
2022-08-27T11:06:31.549Z,63.01
2022-08-27T11:09:07.609Z,62.64
2022-08-27T11:14:38.450Z,62.41
2022-08-27T11:17:14.049Z,62.20
2022-08-27T11:20:04.741Z,62.61
2022-08-27T11:22:41.412Z,62.79
2022-08-27T11:25:30.706Z,62.45
2022-08-27T11:27:59.584Z,62.25
2022-08-27T11:30:41.969Z,62.57
2022-08-27T11:33:31.671Z,62.58
2022-08-27T11:36:13.207Z,62.30
2022-08-27T11:38:58.741Z,62.47
2022-08-27T11:41:54.656Z,62.63
2022-08-27T11:44:24.991Z,61.90
2022-08-27T11:46:56.079Z,61.97
2022-08-27T11:49:57.080Z,61.33
2022-08-27T11:52:37.319Z,60.47
2022-08-27T11:55:13.124Z,59.95
2022-08-27T11:57:40.232Z,59.59
2022-08-27T12:00:33.789Z,59.63
2022-08-27T12:03:18.579Z,59.24
2022-08-27T12:05:54.223Z,59.10
2022-08-27T12:08:23.983Z,59.06
2022-08-27T12:11:18.132Z,58.95
2022-08-27T12:14:04.289Z,58.56
2022-08-27T12:16:41.452Z,58.72
2022-08-27T12:19:31.713Z,58.62
2022-08-27T12:23:09.497Z,59.13
2022-08-27T12:25:35.926Z,57.26
2022-08-27T12:28:05.667Z,56.25
2022-08-27T12:30:36.169Z,55.75
2022-08-27T12:33:34.348Z,55.17
2022-08-27T12:36:11.078Z,54.28
2022-08-27T12:38:48.033Z,53.74
2022-08-27T12:41:44.557Z,54.46
2022-08-27T12:44:31.456Z,50.08
2022-08-27T12:47:07.769Z,46.49
2022-08-27T12:49:41.518Z,45.05
2022-08-27T12:52:44.141Z,43.35
2022-08-27T12:55:31.376Z,40.59
2022-08-27T12:58:28.168Z,37.84
2022-08-27T13:01:17.431Z,36.20
2022-08-27T13:03:48.671Z,33.02
2022-08-27T13:06:19.126Z,30.88
2022-08-27T13:08:47.083Z,29.21
2022-08-27T13:11:21.977Z,27.47
2022-08-27T13:13:49.175Z,27.60
2022-08-27T13:16:21.858Z,28.55
2022-08-27T13:18:50.552Z,28.41
2022-08-27T13:21:28.053Z,26.00
2022-08-27T13:24:02.187Z,24.66
2022-08-27T13:26:33.994Z,25.11
2022-08-27T13:29:03.817Z,25.42
2022-08-27T13:31:32.547Z,25.51
2022-08-27T13:34:00.222Z,26.76
2022-08-27T13:36:32.615Z,28.56
2022-08-27T13:39:02.007Z,30.12
2022-08-27T13:41:37.300Z,31.14
2022-08-27T13:44:10.484Z,31.90
2022-08-27T13:46:46.855Z,32.42
2022-08-27T13:49:18.353Z,33.55
2022-08-27T13:51:45.569Z,34.92
2022-08-27T13:54:13.052Z,36.06
2022-08-27T13:57:08.134Z,36.55
2022-08-27T13:59:41.950Z,35.25
2022-08-27T14:02:09.804Z,35.27
2022-08-27T14:04:47.547Z,35.96
2022-08-27T14:07:17.500Z,35.76
2022-08-27T14:09:54.007Z,36.10
2022-08-27T14:12:41.521Z,37.16
2022-08-27T14:15:31.896Z,36.96
2022-08-27T14:17:58.568Z,37.65
2022-08-27T14:20:25.222Z,37.55
2022-08-27T14:22:51.829Z,38.81
2022-08-27T14:25:22.421Z,38.90
2022-08-27T14:27:53.986Z,37.96
2022-08-27T14:30:28.924Z,38.97
2022-08-27T14:32:58.342Z,39.15
2022-08-27T14:35:25.739Z,39.67
2022-08-27T14:37:52.504Z,39.90
2022-08-27T14:40:19.489Z,40.61
2022-08-27T14:42:49.787Z,40.18
2022-08-27T14:45:17.758Z,40.03
2022-08-27T14:47:48.622Z,40.26
2022-08-27T14:50:15.472Z,40.72
2022-08-27T14:52:45.143Z,41.32
2022-08-27T14:55:11.751Z,41.26
2022-08-27T14:57:38.722Z,41.02
2022-08-27T15:00:07.748Z,41.38
2022-08-27T15:02:34.853Z,41.47
2022-08-27T15:05:01.414Z,41.68
2022-08-27T15:07:37.943Z,41.95
2022-08-27T15:10:05.332Z,41.85
2022-08-27T15:12:32.918Z,41.84
2022-08-27T15:14:59.506Z,41.70
2022-08-27T15:17:34.535Z,41.73
2022-08-27T15:20:05.587Z,42.32
2022-08-27T15:22:34.048Z,42.00
2022-08-27T15:25:02.954Z,42.34
2022-08-27T15:27:38.301Z,42.09
2022-08-27T15:30:10.161Z,42.53
2022-08-27T15:32:40.701Z,42.83
2022-08-27T15:35:12.433Z,42.89
2022-08-27T15:37:39.514Z,43.59
2022-08-27T15:40:06.844Z,43.28
2022-08-27T15:42:33.304Z,43.20
2022-08-27T15:44:59.960Z,43.03
2022-08-27T15:47:26.408Z,43.42
2022-08-27T15:49:52.896Z,43.33
2022-08-27T15:52:21.775Z,43.44
2022-08-27T15:54:49.104Z,43.20
2022-08-27T15:57:17.017Z,43.40
2022-08-27T15:59:44.678Z,43.77
2022-08-27T16:02:16.331Z,44.04
2022-08-27T16:04:44.454Z,44.21
2022-08-27T16:07:17.798Z,43.20
2022-08-27T16:09:47.656Z,43.40
2022-08-27T16:12:27.060Z,43.72
2022-08-27T16:14:55.069Z,43.51
2022-08-27T16:17:21.928Z,43.46
2022-08-27T16:19:49.280Z,44.17
2022-08-27T16:22:16.205Z,43.48
2022-08-27T16:24:42.999Z,43.70
2022-08-27T16:27:09.387Z,44.24
2022-08-27T16:29:36.681Z,43.64
2022-08-27T16:32:03.633Z,43.89
2022-08-27T16:34:30.943Z,44.30
2022-08-27T16:36:57.611Z,44.53
2022-08-27T16:39:24.024Z,45.08
2022-08-27T16:41:50.460Z,45.58
2022-08-27T16:44:17.604Z,45.74
2022-08-27T16:46:44.125Z,45.89
2022-08-27T16:49:29.165Z,46.05
2022-08-27T16:51:56.064Z,46.27
2022-08-27T16:54:22.544Z,46.73
2022-08-27T16:56:50.114Z,47.16
2022-08-27T16:59:16.666Z,47.10
2022-08-27T17:01:45.150Z,46.95
2022-08-27T17:04:21.357Z,46.71
2022-08-27T17:06:54.705Z,46.93
2022-08-27T17:09:21.379Z,46.97
2022-08-27T17:11:54.468Z,47.72
2022-08-27T17:14:21.308Z,47.29
2022-08-27T17:16:47.744Z,47.63
2022-08-27T17:19:17.130Z,47.63
2022-08-27T17:21:45.429Z,47.63
2022-08-27T17:24:12.862Z,47.60
2022-08-27T17:26:39.908Z,47.58
2022-08-27T17:29:06.420Z,47.51
2022-08-27T17:31:37.109Z,47.52
2022-08-27T17:34:06.085Z,47.41
2022-08-27T17:36:33.392Z,47.29
2022-08-27T17:39:02.535Z,47.61
2022-08-27T17:41:34.191Z,47.99
2022-08-27T17:44:05.022Z,48.27
2022-08-27T17:46:31.914Z,48.23
2022-08-27T17:48:59.548Z,48.30
2022-08-27T17:51:27.430Z,48.20
2022-08-27T17:54:00.552Z,48.79
2022-08-27T17:56:29.083Z,48.17
2022-08-27T17:58:56.652Z,48.53
2022-08-27T18:01:30.346Z,48.50
2022-08-27T18:03:58.676Z,48.83
2022-08-27T18:06:26.879Z,48.88
2022-08-27T18:08:53.858Z,49.25
2022-08-27T18:11:20.475Z,49.67
2022-08-27T18:13:52.365Z,49.80
2022-08-27T18:16:19.614Z,49.83
2022-08-27T18:18:46.443Z,49.97
2022-08-27T18:21:13.084Z,49.88
2022-08-27T18:23:51.911Z,50.44
2022-08-27T18:26:21.414Z,50.60
2022-08-27T18:28:48.457Z,50.59
2022-08-27T18:31:17.069Z,51.13
2022-08-27T18:33:43.593Z,51.09
2022-08-27T18:36:10.474Z,51.43
2022-08-27T18:38:37.078Z,51.44
2022-08-27T18:41:03.696Z,51.34
2022-08-27T18:43:34.576Z,51.68
2022-08-27T18:46:03.301Z,51.71
2022-08-27T18:48:30.073Z,51.85
2022-08-27T18:50:59.148Z,51.85
2022-08-27T18:53:28.168Z,52.61
2022-08-27T18:55:54.737Z,52.80
2022-08-27T18:58:22.264Z,53.02
2022-08-27T19:00:53.286Z,52.95
2022-08-27T19:03:24.750Z,53.29
2022-08-27T19:05:55.032Z,53.49
2022-08-27T19:08:23.602Z,53.16
2022-08-27T19:10:50.749Z,53.27
2022-08-27T19:13:17.302Z,53.46
2022-08-27T19:15:49.728Z,53.51
2022-08-27T19:18:17.637Z,53.68
2022-08-27T19:20:44.443Z,53.97
2022-08-27T19:23:11.020Z,54.00
2022-08-27T19:25:37.678Z,53.93
2022-08-27T19:28:04.122Z,54.19
2022-08-27T19:30:31.676Z,54.41
2022-08-27T19:32:58.230Z,54.32
2022-08-27T19:35:25.194Z,54.51
2022-08-27T19:37:53.498Z,54.24
2022-08-27T19:40:22.284Z,54.55
2022-08-27T19:42:49.211Z,54.86
2022-08-27T19:45:15.731Z,54.55
2022-08-27T19:47:50.266Z,55.04
2022-08-27T19:50:17.715Z,55.07
2022-08-27T19:52:44.401Z,54.91
2022-08-27T19:55:13.879Z,55.09
2022-08-27T19:57:41.715Z,55.31
2022-08-27T20:00:09.926Z,55.50
2022-08-27T20:02:36.914Z,55.32
2022-08-27T20:05:19.964Z,55.71
2022-08-27T20:07:49.082Z,55.59
2022-08-27T20:10:16.568Z,55.68
2022-08-27T20:12:43.472Z,55.55
2022-08-27T20:15:10.531Z,55.64
2022-08-27T20:17:36.927Z,55.78
2022-08-27T20:20:06.261Z,55.65
2022-08-27T20:22:32.758Z,55.85
2022-08-27T20:24:59.259Z,55.79
2022-08-27T20:27:25.652Z,56.35
2022-08-27T20:29:52.508Z,55.82
2022-08-27T20:32:20.252Z,56.04
2022-08-27T20:34:46.695Z,56.33
2022-08-27T20:37:13.235Z,56.55
2022-08-27T20:39:40.167Z,56.88
2022-08-27T20:42:06.641Z,56.29
2022-08-27T20:44:33.093Z,56.23
2022-08-27T20:47:01.503Z,56.67
2022-08-27T20:49:28.800Z,56.48
2022-08-27T20:52:03.292Z,56.66
2022-08-27T20:54:31.520Z,57.12
2022-08-27T20:56:58.125Z,57.31
2022-08-27T20:59:43.352Z,57.36
2022-08-27T21:02:12.268Z,57.11
2022-08-27T21:04:41.842Z,57.19
2022-08-27T21:07:08.233Z,57.12
2022-08-27T21:09:35.487Z,57.27
2022-08-27T21:12:22.605Z,57.21
2022-08-27T21:14:50.042Z,57.47
2022-08-27T21:17:21.893Z,56.92
2022-08-27T21:19:48.291Z,56.97
2022-08-27T21:22:14.782Z,57.36
2022-08-27T21:24:41.188Z,57.77
2022-08-27T21:27:07.631Z,57.78
2022-08-27T21:29:34.136Z,57.45
2022-08-27T21:32:00.662Z,57.67
2022-08-27T21:34:28.121Z,57.93
2022-08-27T21:36:54.679Z,58.24
2022-08-27T21:39:21.240Z,57.67
2022-08-27T21:41:48.003Z,57.69
2022-08-27T21:44:14.712Z,57.73
2022-08-27T21:46:41.568Z,57.98
2022-08-27T21:49:08.320Z,57.99
2022-08-27T21:51:35.824Z,58.12
2022-08-27T21:54:02.257Z,58.46
2022-08-27T21:56:31.891Z,57.93
2022-08-27T21:58:58.355Z,58.40
2022-08-27T22:01:24.878Z,58.41
2022-08-27T22:03:51.578Z,58.32
2022-08-27T22:06:19.353Z,58.16
2022-08-27T22:08:45.838Z,58.52
2022-08-27T22:11:13.304Z,58.49
2022-08-27T22:13:40.661Z,58.62
2022-08-27T22:16:07.670Z,58.64
2022-08-27T22:18:34.254Z,58.64
2022-08-27T22:21:01.161Z,58.79
2022-08-27T22:23:27.714Z,58.81
2022-08-27T22:25:54.294Z,58.67
2022-08-27T22:28:21.289Z,58.80
2022-08-27T22:30:47.744Z,58.94
2022-08-27T22:33:14.895Z,59.14
2022-08-27T22:35:41.574Z,59.10
2022-08-27T22:38:08.203Z,59.28
2022-08-27T22:40:36.456Z,59.08
2022-08-27T22:43:04.014Z,59.15
2022-08-27T22:45:30.815Z,59.36
2022-08-27T22:47:57.904Z,59.17
2022-08-27T22:50:24.491Z,59.59
2022-08-27T22:52:51.162Z,59.15
2022-08-27T22:55:21.737Z,59.42
2022-08-27T22:57:50.088Z,59.49
2022-08-27T23:00:20.327Z,59.62
2022-08-27T23:02:46.838Z,59.68
2022-08-27T23:05:14.731Z,59.71
2022-08-27T23:07:42.131Z,60.13
2022-08-27T23:10:11.389Z,60.26
2022-08-27T23:12:39.175Z,60.48
2022-08-27T23:15:08.327Z,60.24
2022-08-27T23:17:34.706Z,60.51
2022-08-27T23:20:01.262Z,60.71
2022-08-27T23:22:27.722Z,60.84
2022-08-27T23:25:12.900Z,60.58
2022-08-27T23:27:39.383Z,60.71
2022-08-27T23:30:07.888Z,60.83
2022-08-27T23:32:34.878Z,60.99
2022-08-27T23:35:01.488Z,61.06
2022-08-27T23:37:28.064Z,61.22
2022-08-27T23:39:54.836Z,61.02
2022-08-27T23:42:21.428Z,60.96
2022-08-27T23:44:48.888Z,61.20
2022-08-27T23:47:15.931Z,61.42
2022-08-27T23:49:43.283Z,61.47
2022-08-27T23:52:11.630Z,61.49
2022-08-27T23:54:38.104Z,61.38
2022-08-27T23:57:04.567Z,61.31
2022-08-27T23:59:31.137Z,61.37
